Time;durP1;ratioP1;P1;durP2;ratioP2;P2;SDS_P1;SDS_P2;PMS_P1;PMS_P2;Temp;Humidity;BMP_temperature;BMP_pressure;BME280_temperature;BME280_humidity;BME280_pressure;Samples;Min_cycle;Max_cycle;Signal;HPM_P1;HPM_P2
2022/03/15 00:01:13;;;;;;;36.77;20.88;;;;;;;0.14;100.00;102180.69;1699096;83;21082;-62
2022/03/15 00:03:40;;;;;;;39.50;20.72;;;;;;;0.08;100.00;102186.86;1680968;84;21003;-61
2022/03/15 00:06:08;;;;;;;37.75;20.25;;;;;;;0.09;100.00;102179.73;1702757;84;21530;-62
2022/03/15 00:08:36;;;;;;;42.03;21.25;;;;;;;0.09;100.00;102179.73;1699889;84;21503;-61
2022/03/15 00:11:05;;;;;;;42.50;20.37;;;;;;;0.06;100.00;102177.11;1695994;83;21043;-61
2022/03/15 00:13:37;;;;;;;36.53;20.20;;;;;;;0.01;100.00;102174.46;1686871;85;20999;-62
2022/03/15 00:16:06;;;;;;;39.67;21.15;;;;;;;-0.05;100.00;102167.97;1686854;85;21078;-61
2022/03/15 00:18:33;;;;;;;38.45;20.95;;;;;;;-0.09;100.00;102166.17;1687011;85;21034;-61
2022/03/15 00:21:03;;;;;;;40.55;21.75;;;;;;;-0.17;100.00;102168.91;1686862;85;21078;-61
2022/03/15 00:23:31;;;;;;;39.73;20.72;;;;;;;-0.21;100.00;102168.81;1687043;85;20995;-62
2022/03/15 00:26:03;;;;;;;42.45;21.50;;;;;;;-0.23;100.00;102169.59;1687127;85;21039;-61
2022/03/15 00:28:29;;;;;;;51.08;24.70;;;;;;;-0.34;100.00;102159.61;1686045;85;21077;-61
2022/03/15 00:30:56;;;;;;;56.02;25.95;;;;;;;-0.38;100.00;102156.55;1687071;85;21047;-62
2022/03/15 00:33:24;;;;;;;54.23;26.15;;;;;;;-0.37;100.00;102150.23;1686872;85;21083;-62
2022/03/15 00:35:53;;;;;;;50.55;23.62;;;;;;;-0.37;100.00;102151.92;1667799;85;21074;-62
2022/03/15 00:38:22;;;;;;;50.10;23.60;;;;;;;-0.43;100.00;102149.69;1687101;85;21070;-61
2022/03/15 00:40:49;;;;;;;49.53;23.52;;;;;;;-0.42;100.00;102145.48;1686823;84;21519;-62
2022/03/15 00:43:17;;;;;;;47.93;22.93;;;;;;;-0.45;100.00;102143.70;1686973;85;21015;-61
2022/03/15 00:45:43;;;;;;;43.02;22.95;;;;;;;-0.43;100.00;102144.63;1686796;85;21039;-61
2022/03/15 00:48:13;;;;;;;42.60;22.25;;;;;;;-0.43;100.00;102141.22;1686763;85;21061;-61
2022/03/15 00:50:41;;;;;;;47.53;23.15;;;;;;;-0.41;100.00;102142.11;1686999;85;21050;-61
2022/03/15 00:53:10;;;;;;;50.17;24.37;;;;;;;-0.44;100.00;102138.25;1686958;85;21051;-61
2022/03/15 00:55:38;;;;;;;46.25;24.30;;;;;;;-0.45;100.00;102135.26;1687093;85;20983;-61
2022/03/15 00:58:07;;;;;;;49.27;24.50;;;;;;;-0.49;100.00;102131.78;1686874;85;21083;-61
2022/03/15 01:00:35;;;;;;;47.17;23.92;;;;;;;-0.53;100.00;102127.45;1684139;85;21032;-61
2022/03/15 01:03:04;;;;;;;47.08;23.22;;;;;;;-0.57;100.00;102124.80;1682629;85;21043;-62
2022/03/15 01:05:32;;;;;;;47.55;23.52;;;;;;;-0.58;100.00;102117.63;1682304;85;21079;-61
2022/03/15 01:07:59;;;;;;;48.25;23.77;;;;;;;-0.57;100.00;102114.69;1682522;85;21079;-60
2022/03/15 01:10:29;;;;;;;46.28;22.87;;;;;;;-0.61;100.00;102115.00;1682745;85;21036;-61
2022/03/15 01:12:56;;;;;;;40.65;22.10;;;;;;;-0.61;100.00;102112.47;1682420;85;21020;-60
2022/03/15 01:15:25;;;;;;;41.08;21.87;;;;;;;-0.65;100.00;102113.20;1657843;85;21171;-61
2022/03/15 01:17:52;;;;;;;42.33;22.10;;;;;;;-0.64;100.00;102113.25;1682388;85;21090;-61
2022/03/15 01:20:20;;;;;;;40.65;21.45;;;;;;;-0.60;100.00;102104.09;1682494;84;21099;-61
2022/03/15 01:22:48;;;;;;;40.28;22.02;;;;;;;-0.57;100.00;102104.16;1682495;85;21496;-61
2022/03/15 01:25:14;;;;;;;41.63;22.22;;;;;;;-0.57;100.00;102102.04;1682354;85;21054;-61
2022/03/15 01:27:43;;;;;;;41.15;22.17;;;;;;;-0.59;100.00;102096.08;1682479;85;21039;-61
2022/03/15 01:30:11;;;;;;;38.70;21.05;;;;;;;-0.56;100.00;102099.97;1682314;85;21043;-61
2022/03/15 01:32:38;;;;;;;41.80;21.57;;;;;;;-0.58;100.00;102095.28;1682851;85;21528;-61
2022/03/15 01:35:07;;;;;;;42.25;22.30;;;;;;;-0.60;100.00;102090.17;1682269;85;21543;-61
2022/03/15 01:37:34;;;;;;;44.27;22.05;;;;;;;-0.63;100.00;102093.87;1675649;86;21020;-62
2022/03/15 01:40:04;;;;;;;44.25;21.97;;;;;;;-0.63;100.00;102093.87;1704986;84;21127;-62
2022/03/15 01:42:31;;;;;;;40.73;21.45;;;;;;;-0.65;100.00;102096.38;1705500;84;21484;-61
2022/03/15 01:45:01;;;;;;;43.52;21.80;;;;;;;-0.63;100.00;102098.55;1688776;84;21060;-61
2022/03/15 01:47:29;;;;;;;38.73;21.48;;;;;;;-0.68;100.00;102096.28;1705648;84;21068;-61
2022/03/15 01:49:55;;;;;;;41.15;21.55;;;;;;;-0.68;100.00;102096.70;1705637;84;21048;-61
2022/03/15 01:52:22;;;;;;;37.45;20.57;;;;;;;-0.69;100.00;102089.52;1705143;84;21075;-61
2022/03/15 01:54:50;;;;;;;39.80;20.52;;;;;;;-0.75;100.00;102084.30;1705091;84;21131;-61
2022/03/15 01:57:18;;;;;;;43.03;22.70;;;;;;;-0.87;100.00;102097.86;1705449;84;21039;-62
2022/03/15 01:59:46;;;;;;;45.03;23.00;;;;;;;-0.95;100.00;102096.75;1705129;84;21095;-61
2022/03/15 02:02:14;;;;;;;42.33;22.00;;;;;;;-0.99;100.00;102091.16;1665086;84;21060;-61
2022/03/15 02:04:42;;;;;;;38.37;20.97;;;;;;;-1.05;100.00;102086.39;1705153;84;21091;-61
2022/03/15 02:07:12;;;;;;;39.50;20.90;;;;;;;-1.05;100.00;102083.02;1688883;84;21560;-61
2022/03/15 02:09:41;;;;;;;43.95;22.17;;;;;;;-1.06;100.00;102087.19;1705329;84;21052;-61
2022/03/15 02:12:10;;;;;;;42.70;21.90;;;;;;;-1.04;100.00;102082.19;1705107;84;21072;-61
2022/03/15 02:14:39;;;;;;;38.75;20.30;;;;;;;-1.07;100.00;102086.75;1705389;84;21552;-61
2022/03/15 02:17:06;;;;;;;41.10;21.50;;;;;;;-1.10;100.00;102085.39;1705089;84;21088;-62
2022/03/15 02:19:37;;;;;;;41.30;22.43;;;;;;;-1.09;100.00;102084.59;1705103;84;21064;-61
2022/03/15 02:22:05;;;;;;;39.13;21.67;;;;;;;-1.14;100.00;102082.73;1705444;84;21048;-61
2022/03/15 02:24:34;;;;;;;40.90;21.10;;;;;;;-1.19;100.00;102086.40;1705088;84;21056;-62
2022/03/15 02:27:02;;;;;;;39.73;20.70;;;;;;;-1.19;100.00;102091.87;1705414;84;21051;-61
2022/03/15 02:29:29;;;;;;;40.87;21.03;;;;;;;-1.22;100.00;102084.64;1705333;84;21041;-61
2022/03/15 02:31:58;;;;;;;39.40;21.43;;;;;;;-1.25;100.00;102083.69;1705331;84;21048;-60
2022/03/15 02:34:26;;;;;;;46.37;21.57;;;;;;;-1.25;100.00;102083.69;1705140;84;21076;-61
2022/03/15 02:36:53;;;;;;;38.80;21.53;;;;;;;-1.28;100.00;102085.73;1705309;84;21126;-61
2022/03/15 02:39:20;;;;;;;40.37;20.50;;;;;;;-1.30;100.00;102077.63;1705306;84;21000;-61
2022/03/15 02:41:49;;;;;;;41.70;21.90;;;;;;;-1.33;100.00;102075.88;1705245;84;21029;-60
2022/03/15 02:44:17;;;;;;;41.50;21.73;;;;;;;-1.37;100.00;102074.48;1705358;84;21044;-61
2022/03/15 02:46:49;;;;;;;38.23;20.47;;;;;;;-1.37;100.00;102077.01;1705222;84;21147;-61
2022/03/15 02:49:16;;;;;;;41.80;21.57;;;;;;;-1.34;100.00;102071.62;1705488;84;21531;-61
2022/03/15 02:51:44;;;;;;;42.03;21.30;;;;;;;-1.36;100.00;102072.39;1705292;84;21055;-61
2022/03/15 02:54:13;;;;;;;41.70;21.83;;;;;;;-1.35;100.00;102073.70;1705259;84;21079;-61
2022/03/15 02:56:44;;;;;;;42.93;21.17;;;;;;;-1.39;100.00;102073.58;1705284;84;21525;-61
2022/03/15 02:59:17;;;;;;;39.40;20.83;;;;;;;-1.39;100.00;102075.69;1705463;84;21031;-61
2022/03/15 03:01:45;;;;;;;41.33;21.20;;;;;;;-1.43;100.00;102073.88;1698984;84;20987;-61
2022/03/15 03:04:12;;;;;;;41.53;21.70;;;;;;;-1.47;100.00;102084.70;1697580;83;21015;-61
2022/03/15 03:06:43;;;;;;;40.83;21.87;;;;;;;-1.42;100.00;102078.11;1697429;84;21050;-61
2022/03/15 03:09:16;;;;;;;41.70;20.93;;;;;;;-1.50;100.00;102071.59;1697704;84;21530;-61
2022/03/15 03:11:39;;;;;;;46.67;22.60;;;;;;;-1.45;100.00;102067.52;1696585;84;21067;-61
2022/03/15 03:14:07;;;;;;;40.73;22.37;;;;;;;-1.44;100.00;102068.36;1697289;83;21043;-62
2022/03/15 03:16:34;;;;;;;38.43;20.07;;;;;;;-1.44;100.00;102067.98;1697589;84;21606;-61
2022/03/15 03:19:03;;;;;;;38.23;21.17;;;;;;;-1.45;100.00;102064.14;1697518;84;21094;-61
2022/03/15 03:21:32;;;;;;;40.70;20.17;;;;;;;-1.46;100.00;102068.34;1697371;84;21086;-61
2022/03/15 03:23:59;;;;;;;36.60;19.57;;;;;;;-1.52;100.00;102061.84;1697305;84;21571;-61
2022/03/15 03:26:26;;;;;;;37.77;19.97;;;;;;;-1.55;100.00;102055.83;1697556;83;21054;-61
2022/03/15 03:28:55;;;;;;;36.67;19.37;;;;;;;-1.53;100.00;102056.73;1697335;84;21022;-61
2022/03/15 03:31:23;;;;;;;36.77;19.47;;;;;;;-1.53;100.00;102050.42;1697661;84;21030;-61
2022/03/15 03:33:52;;;;;;;39.40;20.70;;;;;;;-1.54;100.00;102055.01;1697311;83;21023;-61
2022/03/15 03:36:18;;;;;;;40.30;20.90;;;;;;;-1.58;100.00;102056.61;1697342;84;21054;-61
2022/03/15 03:38:47;;;;;;;38.47;20.43;;;;;;;-1.57;100.00;102059.56;1697601;84;21106;-60
2022/03/15 03:41:14;;;;;;;40.43;21.17;;;;;;;-1.61;100.00;102062.81;1697294;83;21522;-60
2022/03/15 03:43:41;;;;;;;39.90;19.87;;;;;;;-1.62;100.00;102059.84;1697646;83;21117;-61
2022/03/15 03:46:08;;;;;;;37.90;20.50;;;;;;;-1.64;100.00;102062.73;1697257;84;21589;-61
2022/03/15 03:48:37;;;;;;;38.37;20.47;;;;;;;-1.67;100.00;102059.68;1697312;84;21082;-61
2022/03/15 03:51:04;;;;;;;39.07;20.50;;;;;;;-1.70;100.00;102063.80;1697763;84;21471;-61
2022/03/15 03:53:31;;;;;;;39.07;21.17;;;;;;;-1.70;100.00;102062.54;1697360;84;21094;-61
2022/03/15 03:55:57;;;;;;;35.33;20.30;;;;;;;-1.70;100.00;102068.85;1697716;84;21125;-61
2022/03/15 03:58:24;;;;;;;38.00;20.37;;;;;;;-1.73;100.00;102061.17;1679996;84;21034;-61
2022/03/15 04:00:51;;;;;;;39.23;20.43;;;;;;;-1.71;100.00;102065.86;1697364;84;21058;-61
2022/03/15 04:03:19;;;;;;;41.53;20.27;;;;;;;-1.70;100.00;102067.17;1673702;84;21543;-60
2022/03/15 04:05:48;;;;;;;39.37;20.73;;;;;;;-1.66;100.00;102061.83;1689218;84;21121;-61
2022/03/15 04:08:16;;;;;;;41.07;20.87;;;;;;;-1.63;100.00;102059.38;1689524;85;21511;-62
2022/03/15 04:10:46;;;;;;;37.47;19.77;;;;;;;-1.66;100.00;102064.35;1689278;85;21039;-60
2022/03/15 04:13:18;;;;;;;41.13;20.67;;;;;;;-1.71;100.00;102062.92;1689523;85;21558;-61
2022/03/15 04:15:48;;;;;;;39.05;19.70;;;;;;;-1.70;100.00;102065.91;1689599;85;21023;-61
2022/03/15 04:18:15;;;;;;;38.10;19.83;;;;;;;-1.70;100.00;102064.65;1689324;85;21130;-61
2022/03/15 04:20:43;;;;;;;37.03;19.67;;;;;;;-1.66;100.00;102061.83;1673920;85;21074;-61
2022/03/15 04:23:12;;;;;;;40.77;20.57;;;;;;;-1.68;100.00;102062.19;1689286;84;21055;-61
2022/03/15 04:25:39;;;;;;;39.57;19.43;;;;;;;-1.58;100.00;102064.19;1689319;85;21011;-60
2022/03/15 04:28:08;;;;;;;39.70;19.47;;;;;;;-1.57;100.00;102054.52;1689550;85;21046;-60
2022/03/15 04:30:35;;;;;;;36.07;19.27;;;;;;;-1.54;100.00;102055.01;1689207;84;21003;-60
2022/03/15 04:33:02;;;;;;;39.10;19.60;;;;;;;-1.50;100.00;102061.86;1673915;85;21051;-61
2022/03/15 04:35:30;;;;;;;45.97;22.07;;;;;;;-1.48;100.00;102061.50;1684512;85;21008;-60
2022/03/15 04:37:58;;;;;;;84.53;32.03;;;;;;;-1.46;100.00;102059.88;1689243;85;21023;-59
2022/03/15 04:40:25;;;;;;;65.03;26.50;;;;;;;-1.45;100.00;102057.83;1689392;85;21082;-60
2022/03/15 04:42:54;;;;;;;62.17;25.93;;;;;;;-1.41;100.00;102054.17;1689518;85;21007;-60
2022/03/15 04:45:22;;;;;;;54.77;23.90;;;;;;;-1.35;100.00;102053.91;1689379;84;21110;-60
2022/03/15 04:47:50;;;;;;;48.53;21.93;;;;;;;-1.31;100.00;102053.19;1689208;85;21055;-60
2022/03/15 04:50:17;;;;;;;50.43;23.87;;;;;;;-1.29;100.00;102051.16;1688962;85;21055;-60
2022/03/15 04:52:44;;;;;;;46.83;22.97;;;;;;;-1.25;100.00;102052.95;1689409;85;21079;-60
2022/03/15 04:55:11;;;;;;;43.03;21.87;;;;;;;-1.18;100.00;102047.67;1689189;85;21115;-60
2022/03/15 04:57:39;;;;;;;43.77;20.97;;;;;;;-1.08;100.00;102050.91;1689394;85;21039;-61
2022/03/15 05:00:09;;;;;;;47.20;22.10;;;;;;;-1.04;100.00;102052.70;1689193;85;21015;-60
2022/03/15 05:02:40;;;;;;;43.83;21.33;;;;;;;-0.97;100.00;102047.83;1689313;84;21566;-60
2022/03/15 05:05:08;;;;;;;40.17;20.00;;;;;;;-0.92;100.00;102047.15;1689799;85;20995;-60
2022/03/15 05:07:37;;;;;;;36.93;19.53;;;;;;;-0.85;100.00;102046.52;1689270;85;21571;-61
2022/03/15 05:12:50;;;;;;;37.97;19.63;;;;;;;-0.69;100.00;102050.33;1689289;85;21098;-60
2022/03/15 05:15:18;;;;;;;38.15;20.02;;;;;;;-0.58;100.00;102051.02;1689463;83;21543;-60
2022/03/15 05:17:45;;;;;;;35.17;19.70;;;;;;;-0.45;100.00;102053.04;1689277;85;21058;-61
2022/03/15 05:20:14;;;;;;;39.93;20.70;;;;;;;-0.37;100.00;102050.71;1689281;85;21039;-60
2022/03/15 05:22:43;;;;;;;45.33;20.90;;;;;;;-0.31;100.00;102043.28;1689569;85;21523;-60
2022/03/15 05:25:14;;;;;;;46.57;21.87;;;;;;;-0.24;100.00;102047.27;1689164;84;21035;-60
2022/03/15 05:27:44;;;;;;;48.02;21.85;;;;;;;-0.11;100.00;102043.36;1689182;85;21086;-60
2022/03/15 05:30:12;;;;;;;47.58;23.32;;;;;;;-0.01;100.00;102044.45;1689252;85;21043;-61
2022/03/15 05:32:40;;;;;;;45.70;23.83;;;;;;;0.09;100.00;102048.91;1689627;85;21031;-60
2022/03/15 05:35:08;;;;;;;51.23;24.52;;;;;;;0.22;100.00;102046.67;1689260;85;21043;-60
2022/03/15 05:37:37;;;;;;;55.35;25.50;;;;;;;0.38;100.00;102038.18;1689174;85;21047;-60
2022/03/15 05:40:05;;;;;;;55.92;26.07;;;;;;;0.57;100.00;102034.81;1689154;85;21102;-60
2022/03/15 05:42:34;;;;;;;56.55;26.42;;;;;;;0.82;100.00;102033.64;1689116;85;21035;-60
2022/03/15 05:45:01;;;;;;;52.10;27.07;;;;;;;1.00;100.00;102033.16;1689499;85;21047;-60
2022/03/15 05:47:29;;;;;;;51.10;27.15;;;;;;;1.16;100.00;102036.44;1689460;85;20995;-60
2022/03/15 05:49:58;;;;;;;37.90;21.17;;;;;;;1.26;100.00;102039.13;1689162;85;21051;-60
2022/03/15 05:52:26;;;;;;;37.88;18.20;;;;;;;1.49;100.00;102030.70;1689336;85;21082;-60
2022/03/15 05:54:53;;;;;;;35.95;17.02;;;;;;;1.77;100.00;102040.92;1689245;85;21629;-60
2022/03/15 05:57:20;;;;;;;23.52;14.93;;;;;;;2.01;100.00;102039.20;1689210;85;21495;-60
2022/03/15 05:59:46;;;;;;;25.12;13.85;;;;;;;2.33;100.00;102038.81;1689457;85;21053;-60
2022/03/15 06:02:13;;;;;;;25.27;15.20;;;;;;;2.51;100.00;102039.07;1675681;85;21496;-60
2022/03/15 06:04:41;;;;;;;25.27;14.80;;;;;;;2.66;100.00;102041.41;1668623;85;21091;-60
2022/03/15 06:07:08;;;;;;;24.90;14.73;;;;;;;2.78;100.00;102036.48;1668772;85;21048;-60
2022/03/15 06:09:36;;;;;;;23.52;13.62;;;;;;;2.90;100.00;102039.18;1668679;86;21048;-60
2022/03/15 06:12:04;;;;;;;24.05;13.80;;;;;;;2.89;100.00;102037.88;1668704;86;21004;-60
2022/03/15 06:14:31;;;;;;;21.75;13.48;;;;;;;2.98;100.00;102036.70;1669284;85;21012;-60
2022/03/15 06:16:58;;;;;;;24.90;14.07;;;;;;;3.13;100.00;102047.50;1653675;86;21044;-60
2022/03/15 06:19:26;;;;;;;28.83;15.03;;;;;;;3.26;100.00;102036.59;1682785;85;21519;-60
2022/03/15 06:21:54;;;;;;;24.90;14.15;;;;;;;3.44;100.00;102035.09;1682659;85;21066;-60
2022/03/15 06:24:23;;;;;;;26.50;14.03;;;;;;;3.73;100.00;102034.96;1682997;85;21051;-61
2022/03/15 06:26:50;;;;;;;26.23;14.28;;;;;;;4.13;100.00;102038.23;1682963;85;21035;-60
2022/03/15 06:29:17;;;;;;;24.77;14.18;;;;;;;4.13;100.00;102038.23;1682902;85;21051;-61
2022/03/15 06:31:45;;;;;;;23.47;14.05;;;;;;;4.20;100.00;102032.35;1682796;85;21082;-61
2022/03/15 06:34:12;;;;;;;27.42;14.75;;;;;;;4.30;100.00;102030.69;1682694;85;21043;-60
2022/03/15 06:36:41;;;;;;;22.70;13.58;;;;;;;4.49;100.00;102027.42;1683126;85;21535;-60
2022/03/15 06:39:08;;;;;;;23.27;13.40;;;;;;;4.49;100.00;102024.02;1654310;86;21592;-61
2022/03/15 06:41:39;;;;;;;21.87;13.78;;;;;;;4.14;100.00;102021.69;1682915;85;21043;-60
2022/03/15 06:44:06;;;;;;;24.63;14.15;;;;;;;4.09;100.00;102027.16;1682601;85;21047;-60
2022/03/15 06:46:35;;;;;;;26.15;14.85;;;;;;;4.14;100.00;102022.12;1682816;85;21571;-61
2022/03/15 06:49:05;;;;;;;26.12;14.23;;;;;;;4.05;100.00;102015.66;1682903;85;21109;-61
2022/03/15 06:51:32;;;;;;;24.12;13.90;;;;;;;3.79;100.00;102018.45;1682928;85;21380;-61
2022/03/15 06:53:58;;;;;;;23.85;14.05;;;;;;;3.81;100.00;102016.78;1682911;85;21524;-61
2022/03/15 06:56:25;;;;;;;21.85;13.55;;;;;;;3.97;100.00;102016.87;1682796;85;21120;-60
2022/03/15 06:58:53;;;;;;;21.35;13.00;;;;;;;3.89;100.00;102018.52;1682707;85;21062;-61
2022/03/15 07:01:21;;;;;;;22.15;13.55;;;;;;;3.96;100.00;102011.36;1683556;85;21091;-61
2022/03/15 07:03:49;;;;;;;23.75;13.65;;;;;;;4.16;100.00;102016.18;1660111;85;21044;-61
2022/03/15 07:06:16;;;;;;;23.50;13.58;;;;;;;4.25;100.00;102018.35;1682521;85;21054;-61
2022/03/15 07:08:43;;;;;;;23.70;13.75;;;;;;;4.15;100.00;102008.08;1682305;85;21047;-61
2022/03/15 07:11:10;;;;;;;22.22;12.98;;;;;;;4.21;100.00;102008.55;1682305;85;21047;-61
2022/03/15 07:13:37;;;;;;;24.47;13.72;;;;;;;4.22;100.00;102016.64;1682684;85;21032;-60
2022/03/15 07:16:06;;;;;;;25.43;14.45;;;;;;;4.24;100.00;102009.86;1681560;85;21090;-62
2022/03/15 07:18:35;;;;;;;23.75;13.25;;;;;;;4.44;99.95;102018.91;1656326;85;21090;-62
2022/03/15 07:21:02;;;;;;;21.37;12.87;;;;;;;4.50;99.42;102006.19;1679158;85;21071;-60
2022/03/15 07:23:29;;;;;;;27.62;13.70;;;;;;;4.54;98.37;102013.02;1681492;85;21070;-61
2022/03/15 07:25:57;;;;;;;22.22;13.65;;;;;;;4.69;97.95;102013.92;1681630;84;21530;-61
2022/03/15 07:28:28;;;;;;;25.32;14.65;;;;;;;4.70;97.31;102008.81;1681729;85;21031;-60
2022/03/15 07:30:56;;;;;;;23.98;13.30;;;;;;;4.77;96.54;102010.55;1683893;84;20955;-62
2022/03/15 07:33:26;;;;;;;24.98;13.88;;;;;;;4.81;95.79;102008.44;1694371;83;21067;-62
2022/03/15 07:35:54;;;;;;;24.67;14.03;;;;;;;4.97;95.47;102014.89;1694834;84;21044;-61
2022/03/15 07:38:21;;;;;;;26.80;13.78;;;;;;;5.11;94.95;102009.80;1666642;84;21067;-61
2022/03/15 07:40:52;;;;;;;24.05;14.25;;;;;;;5.15;93.52;102014.06;1694272;84;21556;-61
2022/03/15 07:43:23;;;;;;;27.62;14.40;;;;;;;5.13;92.97;102015.77;1698749;84;21071;-61
2022/03/15 07:45:50;;;;;;;25.65;13.68;;;;;;;5.40;93.74;102018.83;1685789;84;21066;-61
2022/03/15 07:48:19;;;;;;;24.32;13.85;;;;;;;5.26;92.68;102021.34;1693592;84;21047;-62
2022/03/15 07:50:51;;;;;;;24.18;14.05;;;;;;;5.44;92.90;102014.58;1697202;84;21011;-62
2022/03/15 07:53:18;;;;;;;23.55;13.72;;;;;;;5.49;91.26;102020.53;1669353;84;21027;-61
2022/03/15 07:55:45;;;;;;;26.25;13.62;;;;;;;5.48;90.36;102013.73;1695052;84;21094;-61
2022/03/15 07:58:14;;;;;;;22.67;13.58;;;;;;;5.38;89.22;102015.41;1697177;84;21043;-64
2022/03/15 08:00:45;;;;;;;21.42;13.18;;;;;;;5.54;90.44;102015.86;1687489;84;21027;-61
2022/03/15 08:03:13;;;;;;;23.77;13.68;;;;;;;5.70;89.70;102019.72;1697134;83;21075;-62
2022/03/15 08:05:44;;;;;;;24.57;13.20;;;;;;;5.90;89.55;102019.28;1702093;83;21011;-61
2022/03/15 08:08:11;;;;;;;25.52;13.43;;;;;;;5.99;86.33;102021.85;1703772;83;21062;-61
2022/03/15 08:10:43;;;;;;;22.90;13.30;;;;;;;6.06;86.30;102012.90;1703590;83;21047;-62
2022/03/15 08:13:12;;;;;;;23.10;13.40;;;;;;;6.11;84.54;102021.43;1695761;83;20995;-61
2022/03/15 08:15:42;;;;;;;21.37;13.38;;;;;;;6.12;84.83;102011.17;1681332;83;21055;-61
2022/03/15 08:18:10;;;;;;;19.92;11.90;;;;;;;6.26;84.94;102008.60;1686528;84;21031;-61
2022/03/15 08:20:41;;;;;;;20.27;11.90;;;;;;;6.18;83.71;102011.20;1696549;83;21536;-61
2022/03/15 08:23:10;;;;;;;19.07;12.13;;;;;;;6.44;81.30;102015.38;1704092;83;21038;-61
2022/03/15 08:25:39;;;;;;;21.07;11.68;;;;;;;6.31;79.84;102017.13;1702294;83;21029;-62
2022/03/15 08:28:08;;;;;;;23.27;11.48;;;;;;;6.37;79.12;102033.73;1686158;83;21067;-61
2022/03/15 08:30:38;;;;;;;24.10;12.35;;;;;;;6.40;79.03;102008.58;1684646;84;21071;-62
2022/03/15 08:33:08;;;;;;;19.52;11.65;;;;;;;6.37;79.19;102009.87;1717215;82;21074;-62
2022/03/15 08:35:36;;;;;;;18.70;11.15;;;;;;;6.42;79.45;102009.42;1710079;84;21055;-62
2022/03/15 08:38:05;;;;;;;22.95;12.90;;;;;;;6.38;77.80;102011.56;1720165;83;21047;-62
2022/03/15 08:40:33;;;;;;;21.60;13.20;;;;;;;6.29;78.76;102004.77;1712178;84;21106;-62
2022/03/15 08:43:04;;;;;;;26.00;15.05;;;;;;;6.42;79.62;102008.14;1717291;83;21519;-63
2022/03/15 08:45:33;;;;;;;21.85;12.45;;;;;;;6.70;79.07;102008.06;1700983;83;21087;-61
2022/03/15 08:48:03;;;;;;;33.63;16.07;;;;;;;6.83;77.83;102000.73;1695959;84;21078;-62
2022/03/15 08:50:31;;;;;;;27.65;15.20;;;;;;;6.76;77.01;102021.68;1717188;83;21055;-61
2022/03/15 08:53:00;;;;;;;23.60;13.55;;;;;;;6.74;76.72;101999.08;1678497;83;21019;-63
2022/03/15 08:55:28;;;;;;;28.35;13.50;;;;;;;6.91;76.62;102005.39;1696190;84;21066;-61
2022/03/15 08:57:56;;;;;;;19.10;11.70;;;;;;;6.70;76.26;102007.62;1709004;83;21034;-62
2022/03/15 09:00:24;;;;;;;21.00;11.97;;;;;;;6.80;76.55;102000.77;1682949;83;21002;-61
2022/03/15 09:02:56;;;;;;;21.57;12.05;;;;;;;6.85;77.27;102014.38;1701682;83;21087;-61
2022/03/15 09:05:25;;;;;;;23.47;12.55;;;;;;;6.68;77.54;101996.98;1701897;83;20960;-61
2022/03/15 09:07:55;;;;;;;23.40;12.98;;;;;;;6.89;77.97;101997.30;1705221;83;21039;-61
2022/03/15 09:10:26;;;;;;;26.82;14.30;;;;;;;6.91;76.96;102004.11;1703951;83;21055;-61
2022/03/15 09:12:57;;;;;;;23.10;11.55;;;;;;;6.75;77.52;101990.97;1705810;83;21074;-61
2022/03/15 09:15:25;;;;;;;16.57;10.90;;;;;;;6.80;75.96;101993.94;1702584;82;20991;-60
2022/03/15 09:17:53;;;;;;;21.37;12.10;;;;;;;6.97;74.67;101985.31;1685788;83;21054;-60
2022/03/15 09:20:24;;;;;;;19.62;11.43;;;;;;;7.06;75.81;101983.16;1699068;83;21102;-61
2022/03/15 09:22:53;;;;;;;17.62;10.85;;;;;;;7.14;77.22;101983.52;1704070;83;20995;-61
2022/03/15 09:25:24;;;;;;;21.02;11.10;;;;;;;7.38;76.05;101999.58;1700682;83;22303;-61
2022/03/15 09:27:52;;;;;;;26.77;13.32;;;;;;;7.41;74.67;101998.28;1701552;83;21480;-61
2022/03/15 09:30:19;;;;;;;19.00;11.30;;;;;;;7.61;76.59;101993.86;1701416;83;21054;-61
2022/03/15 09:32:48;;;;;;;23.80;11.00;;;;;;;7.72;74.89;101998.05;1698049;83;21098;-61
2022/03/15 09:35:18;;;;;;;19.67;10.70;;;;;;;7.68;74.73;102005.34;1701471;83;21015;-60
2022/03/15 09:37:49;;;;;;;20.80;10.70;;;;;;;7.86;74.17;102000.50;1702245;82;21038;-60
2022/03/15 09:40:23;;;;;;;21.02;11.45;;;;;;;7.99;74.22;102000.82;1685924;84;21011;-60
2022/03/15 09:42:57;;;;;;;20.05;11.45;;;;;;;8.03;74.60;102002.48;1689778;85;20975;-60
2022/03/15 09:45:24;;;;;;;22.05;11.75;;;;;;;7.89;74.55;101997.92;1689382;84;21579;-60
2022/03/15 09:47:56;;;;;;;17.67;11.12;;;;;;;7.96;74.69;101995.27;1695848;84;21003;-60
2022/03/15 09:50:24;;;;;;;18.40;11.97;;;;;;;8.20;74.65;101994.17;1718170;83;21562;-61
2022/03/15 09:52:59;;;;;;;22.13;11.48;;;;;;;8.22;74.47;101989.04;1718147;83;21038;-61
2022/03/15 09:55:28;;;;;;;18.60;10.55;;;;;;;8.00;74.66;101990.96;1715929;83;21019;-61
2022/03/15 09:57:57;;;;;;;16.10;10.03;;;;;;;7.96;75.37;101996.98;1701103;83;21614;-61
2022/03/15 10:00:26;;;;;;;16.95;9.90;;;;;;;7.95;74.84;101994.02;1699582;82;20991;-64
2022/03/15 10:02:54;;;;;;;15.70;9.65;;;;;;;8.13;76.05;101992.55;1704769;83;21118;-61
2022/03/15 10:05:24;;;;;;;22.60;10.90;;;;;;;8.20;75.91;101992.89;1694706;83;20996;-62
2022/03/15 10:07:53;;;;;;;18.27;10.65;;;;;;;7.97;76.18;101990.56;1698196;83;20992;-60
2022/03/15 10:10:23;;;;;;;19.20;10.25;;;;;;;8.16;77.64;101992.52;1717328;83;21500;-60
2022/03/15 10:12:51;;;;;;;21.65;11.03;;;;;;;8.14;77.24;101984.42;1717882;83;21035;-60
2022/03/15 10:15:24;;;;;;;16.60;9.83;;;;;;;8.13;77.93;101998.09;1718165;83;21078;-60
2022/03/15 10:17:56;;;;;;;16.93;10.00;;;;;;;8.14;77.88;101999.37;1717911;83;21511;-61
2022/03/15 10:20:31;;;;;;;19.73;10.75;;;;;;;8.00;78.86;101993.09;1717973;83;21055;-60
2022/03/15 10:23:02;;;;;;;16.57;11.22;;;;;;;7.96;78.78;101991.86;1702745;83;21039;-60
2022/03/15 10:25:32;;;;;;;18.50;10.50;;;;;;;8.20;79.87;101983.91;1718188;83;20999;-60
2022/03/15 10:28:06;;;;;;;28.35;13.65;;;;;;;8.39;79.76;101986.28;1718259;83;21030;-60
2022/03/15 10:30:36;;;;;;;16.90;10.10;;;;;;;8.51;79.84;101989.17;1718155;83;21048;-60
2022/03/15 10:33:05;;;;;;;14.35;10.20;;;;;;;8.47;78.43;101988.35;1718049;83;21135;-60
2022/03/15 10:35:41;;;;;;;14.47;10.00;;;;;;;8.70;78.35;101983.38;1718153;83;21503;-60
2022/03/15 10:38:09;;;;;;;15.10;8.90;;;;;;;8.72;77.48;101988.05;1711749;83;21000;-60
2022/03/15 10:40:44;;;;;;;18.55;9.08;;;;;;;8.75;77.11;101991.44;1741994;82;21003;-59
2022/03/15 10:43:18;;;;;;;14.65;9.13;;;;;;;8.67;76.01;101993.25;1720985;83;21571;-60
2022/03/15 10:45:50;;;;;;;14.98;8.63;;;;;;;8.61;76.56;101989.04;1713242;84;21047;-61
2022/03/15 10:48:24;;;;;;;16.15;9.53;;;;;;;8.92;75.47;101984.82;1718117;83;21071;-60
2022/03/15 10:50:54;;;;;;;;;;;;;;;8.92;75.92;101990.38;1704914;83;21023;-60
2022/03/15 10:53:30;;;;;;;12.82;8.15;;;;;;;8.65;76.43;101989.86;1718000;83;20139;-60
2022/03/15 10:56:20;;;;;;;13.40;8.50;;;;;;;8.65;75.49;101983.44;1717774;83;21567;-60
2022/03/15 10:58:56;;;;;;;11.93;7.92;;;;;;;8.96;75.17;101988.17;1713186;83;21016;-60
2022/03/15 11:01:25;;;;;;;15.20;8.80;;;;;;;8.89;74.54;101988.70;1718135;83;21015;-60
2022/03/15 11:04:02;;;;;;;14.10;7.65;;;;;;;9.13;75.24;101986.23;1717930;83;21043;-60
2022/03/15 11:06:43;;;;;;;12.20;7.90;;;;;;;9.22;74.55;101994.23;1718052;83;21530;-61
2022/03/15 11:09:30;;;;;;;12.30;8.30;;;;;;;8.91;74.17;101988.24;1717814;83;21035;-60
2022/03/15 11:12:04;;;;;;;14.33;9.08;;;;;;;8.92;74.05;101987.39;1701774;83;21012;-60
2022/03/15 11:14:57;;;;;;;14.78;9.05;;;;;;;9.28;74.63;101993.30;1718019;83;21038;-60
2022/03/15 11:17:23;;;;;;;15.45;9.98;;;;;;;8.98;75.33;101990.28;1716496;83;21071;-60
2022/03/15 11:19:58;;;;;;;16.37;9.38;;;;;;;8.86;75.43;101987.88;1713284;83;21067;-60